createdAt,value
2023-01-18T00:00:46.538Z,0.00
2023-01-18T00:01:46.615Z,0.00
2023-01-18T00:02:46.517Z,0.00
2023-01-18T00:03:46.525Z,0.00
2023-01-18T00:04:46.525Z,0.00
2023-01-18T00:05:46.497Z,0.00
2023-01-18T00:06:46.478Z,0.00
2023-01-18T00:07:46.506Z,0.00
2023-01-18T00:08:46.487Z,0.00
2023-01-18T00:09:46.465Z,0.00
2023-01-18T00:10:46.437Z,0.00
2023-01-18T00:11:46.427Z,0.00
2023-01-18T00:12:46.419Z,0.00
2023-01-18T00:13:46.437Z,0.00
2023-01-18T00:14:46.386Z,0.00
2023-01-18T00:15:46.398Z,0.00
2023-01-18T00:16:46.366Z,0.00
2023-01-18T00:17:46.367Z,0.00
2023-01-18T00:18:46.343Z,0.00
2023-01-18T00:19:46.359Z,0.00
2023-01-18T00:20:46.333Z,0.00
2023-01-18T00:21:46.340Z,0.00
2023-01-18T00:22:46.313Z,0.00
2023-01-18T00:23:46.314Z,0.00
2023-01-18T00:24:46.293Z,0.00
2023-01-18T00:25:46.308Z,0.00
2023-01-18T00:26:46.290Z,0.00
2023-01-18T00:27:46.273Z,0.00
2023-01-18T00:28:46.249Z,0.00
2023-01-18T00:29:46.257Z,0.00
2023-01-18T00:30:46.237Z,0.00
2023-01-18T00:31:46.321Z,0.00
2023-01-18T00:32:46.208Z,0.00
2023-01-18T00:33:46.202Z,0.00
2023-01-18T00:34:46.183Z,0.00
2023-01-18T00:35:46.200Z,0.00
2023-01-18T00:36:46.163Z,0.00
2023-01-18T00:37:46.162Z,0.00
2023-01-18T00:38:46.141Z,0.00
2023-01-18T00:39:46.134Z,0.00
2023-01-18T00:40:46.133Z,0.00
2023-01-18T00:41:46.147Z,0.00
2023-01-18T00:42:46.091Z,0.00
2023-01-18T00:43:46.095Z,0.00
2023-01-18T00:44:46.067Z,0.00
2023-01-18T00:45:46.124Z,0.00
2023-01-18T00:46:46.064Z,0.00
2023-01-18T00:47:46.083Z,0.00
2023-01-18T00:48:46.035Z,0.00
2023-01-18T00:49:46.046Z,0.00
2023-01-18T00:50:46.014Z,0.00
2023-01-18T00:51:46.016Z,0.00
2023-01-18T00:52:45.986Z,0.00
2023-01-18T00:53:46.034Z,0.00
2023-01-18T00:54:45.972Z,0.00
2023-01-18T00:55:45.984Z,0.00
2023-01-18T00:56:45.947Z,0.00
2023-01-18T00:57:45.969Z,0.00
2023-01-18T00:58:45.927Z,0.00
2023-01-18T00:59:45.943Z,0.00
2023-01-18T01:00:46.051Z,0.00
2023-01-18T01:01:46.081Z,0.00
2023-01-18T01:02:45.974Z,0.00
2023-01-18T01:03:45.887Z,0.00
2023-01-18T01:04:45.868Z,0.00
2023-01-18T01:05:45.887Z,0.00
2023-01-18T01:06:46.353Z,0.00
2023-01-18T01:07:45.853Z,0.00
2023-01-18T01:08:45.822Z,0.00
2023-01-18T01:09:45.830Z,0.00
2023-01-18T01:10:45.820Z,0.00
2023-01-18T01:11:45.816Z,0.00
2023-01-18T01:12:45.794Z,0.00
2023-01-18T01:13:45.775Z,0.00
2023-01-18T01:14:45.791Z,0.00
2023-01-18T01:15:45.769Z,0.00
2023-01-18T01:16:45.815Z,0.00
2023-01-18T01:17:45.743Z,0.00
2023-01-18T01:18:45.732Z,0.00
2023-01-18T01:19:45.751Z,0.00
2023-01-18T01:20:45.689Z,0.00
2023-01-18T01:21:45.704Z,0.00
2023-01-18T01:22:45.676Z,0.00
2023-01-18T01:23:45.672Z,0.00
2023-01-18T01:24:45.691Z,0.00
2023-01-18T01:25:45.659Z,0.00
2023-01-18T01:26:45.651Z,0.00
2023-01-18T01:27:45.646Z,0.00
2023-01-18T01:28:45.613Z,0.00
2023-01-18T01:29:45.597Z,0.00
2023-01-18T01:30:45.715Z,0.00
2023-01-18T01:31:45.579Z,0.00
2023-01-18T01:32:45.599Z,0.00
2023-01-18T01:33:45.557Z,0.00
2023-01-18T01:34:45.562Z,0.00
2023-01-18T01:35:45.543Z,0.00
2023-01-18T01:36:45.547Z,0.00
2023-01-18T01:37:45.516Z,0.00
2023-01-18T01:38:45.541Z,0.00
2023-01-18T01:39:46.060Z,0.00
2023-01-18T01:40:45.514Z,0.00
2023-01-18T01:41:45.466Z,0.00
2023-01-18T01:42:45.472Z,0.00
2023-01-18T01:43:45.468Z,0.00
2023-01-18T01:44:45.468Z,0.00
2023-01-18T01:45:45.480Z,0.00
2023-01-18T01:46:45.458Z,0.00
2023-01-18T01:47:45.414Z,0.00
2023-01-18T01:48:45.423Z,0.00
2023-01-18T01:49:45.413Z,0.00
2023-01-18T01:50:45.412Z,0.00
2023-01-18T01:51:45.370Z,0.00
2023-01-18T01:52:45.376Z,0.00
2023-01-18T01:53:45.340Z,0.00
2023-01-18T01:54:45.359Z,0.00
2023-01-18T01:55:45.355Z,0.00
2023-01-18T01:56:45.336Z,0.00
2023-01-18T01:57:45.329Z,0.00
2023-01-18T01:58:45.312Z,0.00
2023-01-18T01:59:45.294Z,0.00
2023-01-18T02:00:45.373Z,0.00
2023-01-18T02:01:45.409Z,0.00
2023-01-18T02:02:45.335Z,0.00
2023-01-18T02:03:45.248Z,0.00
2023-01-18T02:04:45.271Z,0.00
2023-01-18T02:05:45.218Z,0.00
2023-01-18T02:06:45.228Z,0.00
2023-01-18T02:07:45.236Z,0.00
2023-01-18T02:08:45.208Z,0.00
2023-01-18T02:09:45.190Z,0.00
2023-01-18T02:10:45.207Z,0.00
2023-01-18T02:11:45.182Z,0.00
2023-01-18T02:12:45.198Z,0.00
2023-01-18T02:13:45.142Z,0.00
2023-01-18T02:14:45.140Z,0.00
2023-01-18T02:15:45.129Z,0.00
2023-01-18T02:16:45.216Z,0.00
2023-01-18T02:17:45.102Z,0.00
2023-01-18T02:18:45.127Z,0.00
2023-01-18T02:19:45.094Z,0.00
2023-01-18T02:20:45.079Z,0.00
2023-01-18T02:21:45.120Z,0.00
2023-01-18T02:22:45.067Z,0.00
2023-01-18T02:23:45.040Z,0.00
2023-01-18T02:24:45.065Z,0.00
2023-01-18T02:25:45.027Z,0.00
2023-01-18T02:26:45.010Z,0.00
2023-01-18T02:27:44.997Z,0.00
2023-01-18T02:28:44.989Z,0.00
2023-01-18T02:29:44.972Z,0.00
2023-01-18T05:06:47.344Z,0.00
2023-01-18T05:07:48.497Z,0.00
2023-01-18T05:08:48.313Z,0.00
2023-01-18T05:09:48.287Z,0.00
2023-01-18T05:10:48.296Z,0.00
2023-01-18T05:11:48.265Z,0.00
2023-01-18T05:12:48.546Z,0.00
2023-01-18T05:13:48.248Z,0.00
2023-01-18T05:14:48.295Z,0.00
2023-01-18T05:15:48.239Z,0.00
2023-01-18T05:16:48.227Z,0.00
2023-01-18T05:17:48.211Z,0.00
2023-01-18T05:18:48.240Z,0.00
2023-01-18T05:19:48.191Z,0.00
2023-01-18T05:20:48.217Z,0.00
2023-01-18T05:21:48.193Z,0.00
2023-01-18T05:22:48.183Z,0.00
2023-01-18T05:23:48.157Z,0.00
2023-01-18T05:24:48.147Z,0.00
2023-01-18T05:25:48.154Z,0.00
2023-01-18T05:26:48.132Z,0.00
2023-01-18T05:27:48.132Z,0.00
2023-01-18T05:28:48.112Z,0.00
2023-01-18T05:29:48.081Z,0.00
2023-01-18T05:30:48.089Z,0.00
2023-01-18T05:31:48.098Z,0.00
2023-01-18T05:32:48.077Z,0.00
2023-01-18T05:33:48.078Z,0.00
2023-01-18T05:34:48.051Z,0.00
2023-01-18T05:35:48.029Z,0.00
2023-01-18T05:36:48.033Z,0.00
2023-01-18T05:37:48.009Z,0.00
2023-01-18T05:38:48.015Z,0.00
2023-01-18T05:39:47.995Z,0.00
2023-01-18T05:40:47.996Z,0.00
2023-01-18T05:41:47.989Z,0.00
2023-01-18T05:42:48.294Z,0.00
2023-01-18T05:43:47.982Z,0.00
2023-01-18T05:44:47.960Z,0.00
2023-01-18T05:45:47.967Z,0.00
2023-01-18T05:46:47.939Z,0.00
2023-01-18T05:47:47.967Z,0.00
2023-01-18T05:48:47.910Z,0.00
2023-01-18T05:49:47.895Z,0.00
2023-01-18T05:50:47.889Z,0.00
2023-01-18T05:51:47.875Z,0.00
2023-01-18T05:52:47.862Z,0.00
2023-01-18T05:53:47.865Z,0.00
2023-01-18T05:54:47.857Z,0.00
2023-01-18T05:55:47.830Z,0.00
2023-01-18T05:56:47.818Z,0.00
2023-01-18T05:57:47.859Z,0.00
2023-01-18T05:58:47.817Z,0.00
2023-01-18T05:59:47.813Z,0.00
2023-01-18T06:00:47.812Z,0.00
2023-01-18T06:01:47.777Z,0.00
2023-01-18T06:02:47.761Z,0.00
2023-01-18T06:03:47.760Z,0.00
2023-01-18T06:04:47.764Z,0.00
2023-01-18T06:05:47.761Z,0.00
2023-01-18T06:06:47.719Z,0.00
2023-01-18T06:07:47.690Z,0.00
2023-01-18T06:08:47.698Z,0.00
2023-01-18T06:09:47.672Z,0.00
2023-01-18T06:10:47.676Z,0.00
2023-01-18T06:11:47.676Z,0.00
2023-01-18T06:12:47.653Z,0.00
2023-01-18T06:13:47.644Z,0.00
2023-01-18T06:14:47.644Z,0.00
2023-01-18T06:15:49.584Z,0.00
2023-01-18T06:16:47.642Z,0.00
2023-01-18T06:17:47.622Z,0.00
2023-01-18T06:18:47.595Z,0.00
2023-01-18T06:19:47.575Z,0.00
2023-01-18T06:20:47.575Z,0.00
2023-01-18T06:21:47.571Z,0.00
2023-01-18T06:22:47.550Z,0.00
2023-01-18T06:23:47.527Z,0.00
2023-01-18T06:24:47.532Z,0.00
2023-01-18T06:25:47.504Z,0.00
2023-01-18T06:26:47.515Z,0.00
2023-01-18T06:27:47.520Z,0.00
2023-01-18T06:28:47.489Z,0.00
2023-01-18T06:29:47.471Z,0.00
2023-01-18T06:30:47.494Z,0.00
2023-01-18T06:31:47.498Z,0.00
2023-01-18T06:32:47.461Z,0.00
2023-01-18T06:33:47.423Z,0.00
2023-01-18T06:34:47.426Z,0.00
2023-01-18T06:35:47.421Z,0.00
2023-01-18T06:36:47.406Z,0.00
2023-01-18T06:37:47.387Z,0.00
2023-01-18T06:38:47.394Z,0.00
2023-01-18T06:39:47.366Z,0.00
2023-01-18T06:40:47.382Z,0.00
2023-01-18T06:41:47.363Z,0.00
2023-01-18T06:42:47.364Z,0.00
2023-01-18T06:43:47.330Z,0.00
2023-01-18T06:44:47.322Z,0.00
2023-01-18T06:45:47.317Z,0.00
2023-01-18T06:46:47.295Z,0.00
2023-01-18T06:47:47.297Z,0.00
2023-01-18T06:48:47.253Z,1.00
2023-01-18T06:49:47.216Z,1.00
2023-01-18T06:50:47.224Z,1.00
2023-01-18T06:51:47.185Z,1.00
2023-01-18T06:52:47.203Z,1.00
2023-01-18T06:53:47.187Z,2.00
2023-01-18T06:54:47.194Z,2.00
2023-01-18T06:55:47.156Z,2.00
2023-01-18T06:56:47.151Z,3.00
2023-01-18T06:57:47.118Z,3.00
2023-01-18T06:58:47.133Z,4.00
2023-01-18T06:59:47.116Z,4.00
2023-01-18T07:00:47.347Z,5.00
2023-01-18T07:01:47.216Z,6.00
2023-01-18T07:02:47.097Z,5.00
2023-01-18T07:03:47.097Z,6.00
2023-01-18T07:04:47.086Z,11.00
2023-01-18T07:05:47.063Z,11.00
2023-01-18T07:06:47.069Z,10.00
2023-01-18T07:07:47.024Z,8.00
2023-01-18T07:08:47.026Z,17.00
2023-01-18T07:09:47.001Z,16.00
2023-01-18T07:10:47.001Z,18.00
2023-01-18T07:11:46.993Z,20.00
2023-01-18T07:12:46.984Z,25.00
2023-01-18T07:13:46.961Z,24.00
2023-01-18T07:14:46.992Z,26.00
2023-01-18T07:15:46.934Z,25.00
2023-01-18T07:16:46.962Z,25.00
2023-01-18T07:17:46.934Z,33.00
2023-01-18T07:18:46.957Z,36.00
2023-01-18T07:19:46.906Z,39.00
2023-01-18T07:20:46.908Z,40.00
2023-01-18T07:21:46.876Z,41.00
2023-01-18T07:22:46.888Z,42.00
2023-01-18T07:23:46.860Z,48.00
2023-01-18T07:24:46.866Z,51.00
2023-01-18T07:25:46.843Z,57.00
2023-01-18T07:26:46.850Z,58.00
2023-01-18T07:27:46.836Z,64.00
2023-01-18T07:28:46.828Z,66.00
2023-01-18T07:29:49.413Z,73.00
2023-01-18T07:30:46.817Z,74.00
2023-01-18T07:31:46.830Z,81.00
2023-01-18T07:32:46.791Z,81.00
2023-01-18T07:33:46.763Z,83.00
2023-01-18T07:34:46.763Z,87.00
2023-01-18T07:35:46.752Z,93.00
2023-01-18T07:36:46.734Z,99.00
2023-01-18T07:37:46.743Z,102.00
2023-01-18T07:38:46.732Z,110.00
2023-01-18T07:39:46.717Z,107.00
2023-01-18T07:40:46.697Z,107.00
2023-01-18T07:41:46.676Z,116.00
2023-01-18T07:42:46.718Z,126.00
2023-01-18T07:43:46.672Z,127.00
2023-01-18T07:44:46.665Z,134.00
2023-01-18T07:45:46.639Z,134.00
2023-01-18T07:46:46.658Z,138.00
2023-01-18T07:47:46.642Z,149.00
2023-01-18T07:48:46.649Z,148.00
2023-01-18T07:49:46.599Z,154.00
2023-01-18T07:50:46.623Z,162.00
2023-01-18T07:51:46.569Z,163.00
2023-01-18T07:52:46.605Z,163.00
2023-01-18T07:53:46.572Z,173.00
2023-01-18T07:54:46.550Z,188.00
2023-01-18T07:55:46.558Z,187.00
2023-01-18T07:56:46.565Z,191.00
2023-01-18T07:57:46.508Z,197.00
2023-01-18T07:58:46.539Z,201.00
2023-01-18T07:59:46.496Z,206.00
2023-01-18T08:00:46.582Z,216.00
2023-01-18T08:01:46.545Z,222.00
2023-01-18T08:02:46.531Z,228.00
2023-01-18T08:03:46.448Z,235.00
2023-01-18T08:04:46.451Z,240.00
2023-01-18T08:05:46.433Z,250.00
2023-01-18T08:06:46.449Z,255.00
2023-01-18T08:07:46.411Z,265.00
2023-01-18T08:08:46.427Z,269.00
2023-01-18T08:09:46.415Z,278.00
2023-01-18T08:10:46.416Z,286.00
2023-01-18T08:11:46.384Z,296.00
2023-01-18T08:12:46.366Z,301.00
2023-01-18T08:13:46.350Z,311.00
2023-01-18T08:14:46.347Z,317.00
2023-01-18T08:15:46.379Z,327.00
2023-01-18T08:16:46.349Z,337.00
2023-01-18T08:17:46.321Z,345.00
2023-01-18T08:18:46.311Z,352.00
2023-01-18T08:19:46.300Z,357.00
2023-01-18T08:20:46.305Z,364.00
2023-01-18T08:21:46.286Z,373.00
2023-01-18T08:22:46.261Z,382.00
2023-01-18T08:23:46.290Z,393.00
2023-01-18T08:24:46.251Z,397.00
2023-01-18T08:25:46.233Z,402.00
2023-01-18T08:26:46.220Z,412.00
2023-01-18T08:27:46.209Z,415.00
2023-01-18T08:28:46.235Z,420.00
2023-01-18T08:29:46.197Z,430.00
2023-01-18T08:30:46.276Z,437.00
2023-01-18T08:31:46.184Z,442.00
2023-01-18T08:32:46.171Z,444.00
2023-01-18T08:33:46.167Z,448.00
2023-01-18T08:34:46.166Z,456.00
2023-01-18T08:35:46.149Z,459.00
2023-01-18T08:36:46.141Z,460.00
2023-01-18T08:37:46.115Z,461.00
2023-01-18T08:38:46.121Z,462.00
2023-01-18T08:39:46.112Z,463.00
2023-01-18T08:40:46.165Z,465.00
2023-01-18T08:41:46.105Z,465.00
2023-01-18T08:42:46.048Z,478.00
2023-01-18T08:43:46.069Z,481.00
2023-01-18T08:44:46.050Z,486.00
2023-01-18T08:45:46.053Z,493.00
2023-01-18T08:46:46.072Z,501.00
2023-01-18T08:47:46.014Z,508.00
2023-01-18T08:48:45.993Z,514.00
2023-01-18T08:49:46.009Z,525.00
2023-01-18T08:50:46.044Z,533.00
2023-01-18T08:51:46.012Z,537.00
2023-01-18T08:52:45.943Z,544.00
2023-01-18T08:53:45.962Z,552.00
2023-01-18T08:54:45.914Z,560.00
2023-01-18T08:55:45.967Z,567.00
2023-01-18T08:56:45.961Z,569.00
2023-01-18T08:57:45.909Z,578.00
2023-01-18T08:58:46.049Z,583.00
2023-01-18T08:59:45.893Z,591.00
2023-01-18T09:00:46.090Z,598.00
2023-01-18T09:01:45.985Z,611.00
2023-01-18T09:02:45.873Z,616.00
2023-01-18T09:03:45.844Z,620.00
2023-01-18T09:04:45.818Z,628.00
2023-01-18T09:05:45.861Z,630.00
2023-01-18T09:06:45.836Z,636.00
2023-01-18T09:07:45.805Z,647.00
2023-01-18T09:08:45.787Z,662.00
2023-01-18T09:09:45.792Z,672.00
2023-01-18T09:10:45.769Z,679.00
2023-01-18T09:11:45.770Z,694.00
2023-01-18T09:12:45.746Z,704.00
2023-01-18T09:13:59.918Z,712.00
2023-01-18T09:14:45.724Z,719.00
2023-01-18T09:15:45.795Z,732.00
2023-01-18T09:16:45.704Z,736.00
2023-01-18T09:17:45.693Z,748.00
2023-01-18T09:18:45.709Z,754.00
2023-01-18T09:19:45.679Z,765.00
2023-01-18T09:20:45.665Z,782.00
2023-01-18T09:21:45.659Z,792.00
2023-01-18T09:22:45.634Z,804.00
2023-01-18T09:23:45.650Z,815.00
2023-01-18T09:24:45.632Z,830.00
2023-01-18T09:25:45.638Z,838.00
2023-01-18T09:26:45.609Z,864.00
2023-01-18T09:27:45.646Z,871.00
2023-01-18T09:28:45.575Z,880.00
2023-01-18T09:29:45.584Z,893.00
2023-01-18T09:30:45.564Z,898.00
2023-01-18T09:31:45.623Z,906.00
2023-01-18T09:32:45.521Z,913.00
2023-01-18T09:33:52.872Z,914.00
2023-01-18T09:34:45.514Z,915.00
2023-01-18T09:35:45.525Z,914.00
2023-01-18T09:36:45.486Z,909.00
2023-01-18T09:37:45.582Z,911.00
2023-01-18T09:38:45.465Z,917.00
2023-01-18T09:39:51.698Z,924.00
2023-01-18T09:40:45.504Z,923.00
2023-01-18T09:41:45.487Z,921.00
2023-01-18T09:42:45.437Z,921.00
2023-01-18T09:43:45.471Z,924.00
2023-01-18T09:44:45.419Z,922.00
2023-01-18T09:45:45.410Z,924.00
2023-01-18T09:46:45.471Z,932.00
2023-01-18T09:47:45.414Z,934.00
2023-01-18T09:48:45.367Z,941.00
2023-01-18T09:49:45.372Z,945.00
2023-01-18T09:50:45.358Z,949.00
2023-01-18T09:51:45.349Z,953.00
2023-01-18T09:52:45.348Z,961.00
2023-01-18T09:53:45.333Z,968.00
2023-01-18T09:54:45.300Z,970.00
2023-01-18T09:55:45.322Z,976.00
2023-01-18T09:56:45.290Z,974.00
2023-01-18T09:57:45.283Z,981.00
2023-01-18T09:58:45.303Z,984.00
2023-01-18T09:59:45.269Z,990.00
2023-01-18T10:00:45.284Z,993.00
2023-01-18T10:01:45.504Z,998.00
2023-01-18T10:02:45.319Z,1008.00
2023-01-18T10:03:45.227Z,1021.00
2023-01-18T10:04:45.211Z,1028.00
2023-01-18T10:05:45.222Z,1042.00
2023-01-18T10:06:45.217Z,1047.00
2023-01-18T10:07:45.184Z,1058.00
2023-01-18T10:08:45.159Z,1067.00
2023-01-18T10:09:45.181Z,1071.00
2023-01-18T10:10:45.133Z,1070.00
2023-01-18T10:11:45.161Z,1084.00
2023-01-18T10:12:45.131Z,1097.00
2023-01-18T10:13:45.126Z,1108.00
2023-01-18T10:14:45.137Z,1118.00
2023-01-18T10:15:45.102Z,1118.00
2023-01-18T10:16:45.093Z,1127.00
2023-01-18T10:17:45.095Z,1139.00
2023-01-18T10:18:45.149Z,1148.00
2023-01-18T10:19:45.089Z,1154.00
2023-01-18T10:20:45.078Z,1163.00
2023-01-18T10:21:45.039Z,1169.00
2023-01-18T10:22:45.012Z,1188.00
2023-01-18T10:23:45.051Z,1188.00
2023-01-18T10:24:44.993Z,1196.00
2023-01-18T10:25:45.013Z,1199.00
2023-01-18T10:26:44.975Z,1195.00
2023-01-18T10:27:44.978Z,1198.00
2023-01-18T10:28:44.975Z,1204.00
2023-01-18T10:29:44.952Z,1201.00
2023-01-18T10:30:44.936Z,1210.00
2023-01-18T10:31:45.056Z,1216.00
2023-01-18T10:32:44.918Z,1218.00
2023-01-18T10:33:44.915Z,1223.00
2023-01-18T10:34:44.921Z,1231.00
2023-01-18T10:35:44.892Z,1232.00
2023-01-18T10:36:44.876Z,1237.00
2023-01-18T10:37:44.886Z,1246.00
2023-01-18T10:38:44.861Z,1246.00
2023-01-18T10:39:44.900Z,1258.00
2023-01-18T10:40:44.822Z,1251.00
2023-01-18T10:41:44.836Z,1250.00
2023-01-18T10:42:44.805Z,1250.00
2023-01-18T10:43:44.820Z,1244.00
2023-01-18T10:44:44.813Z,1240.00
2023-01-18T10:45:44.848Z,1238.00
2023-01-18T10:46:44.773Z,1237.00
2023-01-18T10:47:44.782Z,1237.00
2023-01-18T10:48:44.749Z,1223.00
2023-01-18T10:49:44.790Z,1224.00
2023-01-18T10:50:44.728Z,1218.00
2023-01-18T10:51:44.741Z,1212.00
2023-01-18T10:52:44.712Z,1214.00
2023-01-18T10:53:44.717Z,1206.00
2023-01-18T10:54:44.685Z,1205.00
2023-01-18T10:55:44.722Z,1192.00
2023-01-18T10:56:44.667Z,1198.00
2023-01-18T10:57:44.671Z,1207.00
2023-01-18T10:58:44.643Z,1206.00
2023-01-18T10:59:44.649Z,1197.00
2023-01-18T11:00:44.658Z,1194.00
2023-01-18T11:01:44.853Z,1198.00
2023-01-18T11:02:44.653Z,1181.00
2023-01-18T11:03:44.621Z,1169.00
2023-01-18T11:04:44.607Z,1171.00
2023-01-18T11:05:44.597Z,1169.00
2023-01-18T11:06:44.560Z,1169.00
2023-01-18T11:07:44.577Z,1165.00
2023-01-18T11:08:44.571Z,1170.00
2023-01-18T11:09:44.592Z,1176.00
2023-01-18T11:10:44.530Z,1172.00
2023-01-18T11:11:44.540Z,1168.00
2023-01-18T11:12:44.497Z,1173.00
2023-01-18T11:13:44.506Z,1177.00
2023-01-18T11:14:44.517Z,1172.00
2023-01-18T11:15:44.510Z,1172.00
2023-01-18T11:16:44.546Z,1181.00
2023-01-18T11:17:44.493Z,1184.00
2023-01-18T11:18:44.455Z,1191.00
2023-01-18T11:19:44.445Z,1194.00
2023-01-18T11:20:44.470Z,1202.00
2023-01-18T11:21:44.420Z,1208.00
2023-01-18T11:22:44.427Z,1204.00
2023-01-18T11:23:44.412Z,1206.00
2023-01-18T11:24:44.384Z,1208.00
2023-01-18T11:25:44.386Z,1216.00
2023-01-18T11:26:44.366Z,1216.00
2023-01-18T11:27:44.379Z,1221.00
2023-01-18T11:28:44.338Z,1205.00
2023-01-18T11:29:44.340Z,1198.00
2023-01-18T11:30:44.334Z,1195.00
2023-01-18T11:31:44.341Z,1192.00
2023-01-18T11:32:44.345Z,1187.00
2023-01-18T11:33:44.305Z,1185.00
2023-01-18T11:34:44.276Z,1176.00
2023-01-18T11:35:44.285Z,1170.00
2023-01-18T11:36:44.280Z,1161.00
2023-01-18T11:37:44.283Z,1152.00
2023-01-18T11:38:44.494Z,1148.00
2023-01-18T11:39:45.608Z,1139.00
2023-01-18T11:40:44.232Z,1137.00
2023-01-18T11:41:44.270Z,1134.00
2023-01-18T11:42:44.194Z,1133.00
2023-01-18T11:43:44.197Z,1126.00
2023-01-18T11:44:44.189Z,1125.00
2023-01-18T11:45:45.522Z,1124.00
2023-01-18T11:46:44.162Z,1119.00
2023-01-18T11:47:44.179Z,1119.00
2023-01-18T11:48:44.147Z,1113.00
2023-01-18T11:49:44.143Z,1112.00
2023-01-18T11:50:44.127Z,1103.00
2023-01-18T11:51:45.714Z,1093.00
2023-01-18T11:52:44.109Z,1091.00
2023-01-18T11:53:44.122Z,1089.00
2023-01-18T11:54:44.063Z,1089.00
2023-01-18T11:55:44.104Z,1076.00
2023-01-18T11:56:44.080Z,1074.00
2023-01-18T11:57:44.951Z,1081.00
2023-01-18T11:58:44.037Z,1083.00
2023-01-18T11:59:44.087Z,1083.00
2023-01-18T12:00:44.012Z,1088.00
2023-01-18T12:01:44.018Z,1096.00
2023-01-18T12:02:44.009Z,1100.00
2023-01-18T12:03:44.179Z,1111.00
2023-01-18T12:04:43.980Z,1111.00
2023-01-18T12:05:45.813Z,1110.00
2023-01-18T12:06:43.955Z,1108.00
2023-01-18T12:07:44.472Z,1115.00
2023-01-18T12:08:43.950Z,1108.00
2023-01-18T12:09:43.959Z,1095.00
2023-01-18T12:10:43.911Z,1096.00
2023-01-18T12:11:45.623Z,1089.00
2023-01-18T12:12:43.901Z,1084.00
2023-01-18T12:13:43.900Z,1081.00
2023-01-18T12:14:43.887Z,1086.00
2023-01-18T12:15:43.882Z,1088.00
2023-01-18T12:16:43.903Z,1089.00
2023-01-18T12:17:46.039Z,1095.00
2023-01-18T12:18:43.835Z,1096.00
2023-01-18T12:19:43.833Z,1098.00
2023-01-18T12:20:43.830Z,1102.00
2023-01-18T12:21:43.812Z,1110.00
2023-01-18T12:22:43.785Z,1107.00
2023-01-18T12:23:43.809Z,1117.00
2023-01-18T12:24:45.815Z,1121.00
2023-01-18T12:25:43.791Z,1125.00
2023-01-18T12:26:43.730Z,1138.00
2023-01-18T12:27:43.755Z,1142.00
2023-01-18T12:28:43.723Z,1147.00
2023-01-18T12:29:43.738Z,1147.00
2023-01-18T12:30:43.804Z,1150.00
2023-01-18T12:31:43.716Z,1157.00
2023-01-18T12:32:43.698Z,1172.00
2023-01-18T12:33:44.249Z,1192.00
2023-01-18T12:34:43.790Z,1206.00
2023-01-18T12:35:43.691Z,1214.00
2023-01-18T12:36:43.668Z,1228.00
2023-01-18T12:37:43.652Z,1230.00
2023-01-18T12:38:43.680Z,1246.00
2023-01-18T12:39:43.629Z,1265.00
2023-01-18T12:40:43.603Z,1254.00
2023-01-18T12:41:43.612Z,1256.00
2023-01-18T12:42:43.578Z,1259.00
2023-01-18T12:43:43.586Z,1266.00
2023-01-18T12:44:43.610Z,1266.00
2023-01-18T12:45:43.564Z,1243.00
2023-01-18T12:46:43.560Z,1213.00
2023-01-18T12:47:43.543Z,1167.00
2023-01-18T12:48:43.516Z,1191.00
2023-01-18T12:49:43.556Z,1181.00
2023-01-18T12:50:43.626Z,1161.00
2023-01-18T12:51:43.515Z,1162.00
2023-01-18T12:52:43.480Z,1151.00
2023-01-18T12:53:43.485Z,1131.00
2023-01-18T12:54:43.469Z,1134.00
2023-01-18T12:55:43.588Z,1131.00
2023-01-18T12:56:43.491Z,1108.00
2023-01-18T12:57:45.688Z,1081.00
2023-01-18T12:58:43.419Z,1074.00
2023-01-18T12:59:43.410Z,1045.00
2023-01-18T13:00:43.405Z,1034.00
2023-01-18T13:01:43.492Z,1015.00
2023-01-18T13:02:43.405Z,1002.00
2023-01-18T13:03:43.368Z,994.00
2023-01-18T13:04:43.372Z,990.00
2023-01-18T13:05:43.340Z,982.00
2023-01-18T13:06:43.371Z,979.00
2023-01-18T13:07:43.334Z,986.00
2023-01-18T13:08:44.761Z,1049.00
2023-01-18T13:09:43.323Z,1003.00
2023-01-18T13:10:43.359Z,1020.00
2023-01-18T13:11:43.315Z,1027.00
2023-01-18T13:12:43.314Z,1019.00
2023-01-18T13:13:43.253Z,1022.00
2023-01-18T13:14:43.261Z,1023.00
2023-01-18T13:15:43.291Z,1003.00
2023-01-18T13:16:43.861Z,1001.00
2023-01-18T13:17:43.234Z,1004.00
2023-01-18T13:18:43.216Z,993.00
2023-01-18T13:19:43.237Z,986.00
2023-01-18T13:20:43.327Z,990.00
2023-01-18T13:21:43.170Z,988.00
2023-01-18T13:22:43.220Z,984.00
2023-01-18T13:23:43.168Z,967.00
2023-01-18T13:24:43.174Z,956.00
2023-01-18T13:25:43.147Z,947.00
2023-01-18T13:26:43.147Z,947.00
2023-01-18T13:27:43.145Z,941.00
2023-01-18T13:28:43.176Z,950.00
2023-01-18T13:29:43.098Z,949.00
2023-01-18T13:30:43.176Z,941.00
2023-01-18T13:31:43.087Z,940.00
2023-01-18T13:32:43.076Z,921.00
2023-01-18T13:33:43.086Z,920.00
2023-01-18T13:34:48.511Z,911.00
2023-01-18T13:35:43.036Z,895.00
2023-01-18T13:36:43.027Z,882.00
2023-01-18T13:37:43.014Z,876.00
2023-01-18T13:38:43.043Z,864.00
2023-01-18T13:39:42.988Z,848.00
2023-01-18T13:40:42.998Z,841.00
2023-01-18T13:41:42.962Z,835.00
2023-01-18T13:42:43.042Z,835.00
2023-01-18T13:43:42.985Z,828.00
2023-01-18T13:44:42.978Z,827.00
2023-01-18T13:45:42.976Z,831.00
2023-01-18T13:46:43.005Z,844.00
2023-01-18T13:47:42.962Z,867.00
2023-01-18T13:48:42.910Z,898.00
2023-01-18T13:49:42.926Z,939.00
2023-01-18T13:50:42.936Z,913.00
2023-01-18T13:51:42.899Z,909.00
2023-01-18T13:52:42.896Z,901.00
2023-01-18T13:53:42.865Z,925.00
2023-01-18T13:54:43.352Z,942.00
2023-01-18T13:55:42.818Z,954.00
2023-01-18T13:56:42.830Z,948.00
2023-01-18T13:57:42.816Z,930.00
2023-01-18T13:58:42.842Z,909.00
2023-01-18T13:59:42.809Z,851.00
2023-01-18T14:00:42.815Z,816.00
2023-01-18T14:01:43.371Z,806.00
2023-01-18T14:02:42.840Z,787.00
2023-01-18T14:03:42.876Z,758.00
2023-01-18T14:04:42.751Z,727.00
2023-01-18T14:05:42.724Z,710.00
2023-01-18T14:06:42.748Z,700.00
2023-01-18T14:07:42.703Z,697.00
2023-01-18T14:08:42.726Z,699.00
2023-01-18T14:09:42.683Z,691.00
2023-01-18T14:10:42.690Z,685.00
2023-01-18T14:11:42.657Z,677.00
2023-01-18T14:12:42.666Z,670.00
2023-01-18T14:13:42.660Z,659.00
2023-01-18T14:14:42.682Z,651.00
2023-01-18T14:15:42.715Z,652.00
2023-01-18T14:16:42.639Z,647.00
2023-01-18T14:17:57.808Z,641.00
2023-01-18T14:18:42.643Z,640.00
2023-01-18T14:19:42.591Z,620.00
2023-01-18T14:20:42.633Z,607.00
2023-01-18T14:21:42.600Z,602.00
2023-01-18T14:22:42.581Z,595.00
2023-01-18T14:23:42.560Z,580.00
2023-01-18T14:24:42.562Z,572.00
2023-01-18T14:25:42.510Z,582.00
2023-01-18T14:26:42.624Z,583.00
2023-01-18T14:27:42.514Z,579.00
2023-01-18T14:28:42.515Z,571.00
2023-01-18T14:29:42.491Z,569.00
2023-01-18T14:30:42.518Z,569.00
2023-01-18T14:31:42.450Z,569.00
2023-01-18T14:32:42.459Z,569.00
2023-01-18T14:33:42.450Z,568.00
2023-01-18T14:34:42.510Z,562.00
2023-01-18T14:35:42.448Z,563.00
2023-01-18T14:36:42.441Z,560.00
2023-01-18T14:37:42.382Z,549.00
2023-01-18T14:38:42.413Z,555.00
2023-01-18T14:39:42.392Z,549.00
2023-01-18T14:40:42.387Z,537.00
2023-01-18T14:41:42.383Z,527.00
2023-01-18T14:42:42.359Z,523.00
2023-01-18T14:43:42.327Z,509.00
2023-01-18T14:44:57.268Z,501.00
2023-01-18T14:45:42.311Z,492.00
2023-01-18T14:46:42.351Z,486.00
2023-01-18T14:47:42.284Z,477.00
2023-01-18T14:48:42.325Z,472.00
2023-01-18T14:49:42.277Z,464.00
2023-01-18T14:50:42.264Z,458.00
2023-01-18T14:51:42.258Z,458.00
2023-01-18T14:52:42.266Z,452.00
2023-01-18T14:53:42.258Z,442.00
2023-01-18T14:54:42.240Z,433.00
2023-01-18T14:55:42.220Z,426.00
2023-01-18T14:56:42.229Z,424.00
2023-01-18T14:57:42.218Z,411.00
2023-01-18T14:58:42.214Z,406.00
2023-01-18T14:59:42.222Z,399.00
2023-01-18T15:00:42.207Z,398.00
2023-01-18T15:01:42.438Z,390.00
2023-01-18T15:02:42.257Z,387.00
2023-01-18T15:03:42.138Z,377.00
2023-01-18T15:04:42.143Z,368.00
2023-01-18T15:05:42.248Z,363.00
2023-01-18T15:06:42.118Z,355.00
2023-01-18T15:07:42.095Z,341.00
2023-01-18T15:08:42.120Z,351.00
2023-01-18T15:09:42.160Z,358.00
2023-01-18T15:10:42.075Z,352.00
2023-01-18T15:11:42.071Z,346.00
2023-01-18T15:12:42.071Z,349.00
2023-01-18T15:13:42.023Z,348.00
2023-01-18T15:14:42.033Z,331.00
2023-01-18T15:15:42.003Z,322.00
2023-01-18T15:16:42.027Z,317.00